Bei Facebook empfehlenBei Twitter postenGoogle plusPinterest

Das Wetter im Erzgebirge am 23.11.2016

Wetter und Klima am 23.11.2016 Holzhau im Erzgebirge (630m ü.NN)
Letzte gemessene Temperatur und Uhrzeit der Messung23:45:00 Uhr4.10 °C
Temperatur (Maximum / Höchstwert) und Uhrzeit der Messung14:00:00 Uhr10.50 °C
Temperatur (Minimum / Tiefstwert) und Uhrzeit der Messung22:45:003.80 °C
Errechneter Absolutwert der Temperaturschwankungen zwischen Tmin und Tmax des Tages6.70 K
Errechnete Tagesmitteltemperatur5.97604 °C
Gesamt - Niederschlag des Tages (in flüssiger Form)0.00 Liter / m²
Luftdruck (Maximum / Höchstwert) und Zeitpunkt der Messung21:30:00 Uhr1016.70 hPa
Luftdruck (Minimum / Tiefstwert) und Zeitpunkt der Messung00:30:00 Uhr1013.30 hPa
Errechneter Absolutwert der Luftdruckschwankungen des Tages3.40 hPa
Höchste gemessene Windgeschwindigkeit und Uhrzeit der Messung23:45:00 Uhr0.00 km/h
Errechnete Windhäufigkeit in Relation zu den Messwerten des Tages0.00000 %
Niedrigste Windkühle (Windchill) und Zeitpunkt der Messung22:45:00 Uhr3.80 °C
Taupunkt (Maximum / Höchstwert) und Uhrzeit der Messung13:30:00 Uhr9.50 °C
Taupunkt (Minimum / Tiefstwert) und Uhrzeit der Messung22:45:003.10 °C
Anzahl der automatisch eingelesenen Messwerte 96

Detaillierte Wetter- und Klima- Messwerte für den 23.11.2016 in Holzhau im Erzgebirge (630m ü.NN)
ZeitTemperaturLuftdruckRel. LuftfeuchteWindWindrichtungWindchillTaupunktNiederschlag l/m²
23:45:004.10 °C1016.10 hPa96.00 %3.50 °C 
23:30:004.10 °C1016.00 hPa96.00 %3.50 °C 
23:15:003.90 °C1016.30 hPa96.00 %3.30 °C 
23:00:003.90 °C1016.30 hPa96.00 %3.30 °C 
22:45:003.80 °C1016.40 hPa95.00 %3.10 °C 
22:30:003.80 °C1016.40 hPa95.00 %3.10 °C 
22:15:003.90 °C1016.20 hPa95.00 %3.20 °C 
22:00:003.80 °C1016.30 hPa95.00 %3.10 °C 
21:45:003.80 °C1016.50 hPa95.00 %3.10 °C 
21:30:003.90 °C1016.70 hPa95.00 %3.20 °C 
21:15:004.00 °C1016.70 hPa95.00 %3.30 °C 
21:00:004.10 °C1016.70 hPa95.00 %3.40 °C 
20:45:004.10 °C1016.60 hPa95.00 %3.40 °C 
20:30:004.10 °C1016.70 hPa95.00 %3.40 °C 
20:15:004.10 °C1016.50 hPa95.00 %3.40 °C 
20:00:004.20 °C1016.50 hPa95.00 %3.50 °C 
19:45:004.20 °C1016.60 hPa95.00 %3.50 °C 
19:30:004.40 °C1016.60 hPa95.00 %3.70 °C 
19:15:004.30 °C1016.50 hPa95.00 %3.60 °C 
19:00:004.40 °C1016.50 hPa95.00 %3.70 °C 
18:45:004.40 °C1016.30 hPa95.00 %3.70 °C 
18:30:004.50 °C1016.40 hPa94.00 %3.60 °C 
18:15:004.60 °C1016.30 hPa94.00 %3.70 °C 
18:00:004.70 °C1016.50 hPa94.00 %3.80 °C 
17:45:004.80 °C1016.60 hPa94.00 %3.90 °C 
17:30:004.90 °C1016.20 hPa94.00 %4.00 °C 
17:15:004.90 °C1016.50 hPa93.00 %3.90 °C 
17:00:005.10 °C1016.20 hPa93.00 %4.10 °C 
16:45:005.30 °C1016.00 hPa93.00 %4.30 °C 
16:30:005.50 °C1016.00 hPa93.00 %4.50 °C 
16:15:005.80 °C1015.90 hPa92.00 %4.60 °C 
16:00:006.20 °C1015.90 hPa91.00 %4.80 °C 
15:45:006.60 °C1015.90 hPa91.00 %5.20 °C 
15:30:007.20 °C1016.10 hPa90.00 %5.70 °C 
15:15:008.10 °C1016.00 hPa90.00 %6.60 °C 
15:00:008.70 °C1015.90 hPa90.00 %7.20 °C 
14:45:009.20 °C1015.90 hPa90.00 %7.60 °C 
14:30:009.60 °C1015.80 hPa90.00 %8.00 °C 
14:15:0010.10 °C1015.80 hPa91.00 %8.70 °C 
14:00:0010.50 °C1015.70 hPa92.00 %9.30 °C 
13:45:0010.50 °C1015.70 hPa93.00 %9.40 °C 
13:30:0010.40 °C1015.80 hPa94.00 %9.50 °C 
13:15:0010.30 °C1015.80 hPa95.00 %9.50 °C 
13:00:0010.10 °C1015.90 hPa95.00 %9.30 °C 
12:45:009.90 °C1016.20 hPa96.00 %9.30 °C 
12:30:009.80 °C1016.00 hPa96.00 %9.20 °C 
12:15:009.50 °C1016.00 hPa96.00 %8.90 °C 
12:00:009.40 °C1016.10 hPa97.00 %8.90 °C 
11:45:009.10 °C1016.20 hPa97.00 %8.60 °C 
11:30:008.80 °C1016.30 hPa97.00 %8.40 °C 
11:15:008.70 °C1016.30 hPa97.00 %8.30 °C 
11:00:008.20 °C1016.50 hPa97.00 %7.80 °C 
10:45:007.90 °C1016.60 hPa97.00 %7.50 °C 
10:30:007.60 °C1016.50 hPa97.00 %7.20 °C 
10:15:007.30 °C1016.40 hPa97.00 %6.90 °C 
10:00:006.90 °C1016.40 hPa97.00 %6.50 °C 
09:45:006.40 °C1016.50 hPa97.00 %6.00 °C 
09:30:006.10 °C1016.20 hPa97.00 %5.70 °C 
09:15:005.80 °C1016.20 hPa97.00 %5.40 °C 
09:00:005.40 °C1016.00 hPa97.00 %5.00 °C 
08:45:005.30 °C1015.80 hPa97.00 %4.90 °C 
08:30:005.10 °C1015.70 hPa97.00 %4.70 °C 
08:15:005.10 °C1015.60 hPa97.00 %4.70 °C 
08:00:005.10 °C1015.30 hPa97.00 %4.70 °C 
07:45:005.00 °C1015.10 hPa97.00 %4.60 °C 
07:30:004.90 °C1015.00 hPa97.00 %4.50 °C 
07:15:005.10 °C1015.10 hPa97.00 %4.70 °C 
07:00:005.30 °C1015.00 hPa97.00 %4.90 °C 
06:45:005.30 °C1014.90 hPa96.00 %4.70 °C 
06:30:005.40 °C1014.70 hPa96.00 %4.80 °C 
06:15:005.50 °C1014.50 hPa96.00 %4.90 °C 
06:00:005.60 °C1014.50 hPa97.00 %5.20 °C 
05:45:005.60 °C1014.60 hPa97.00 %5.20 °C 
05:30:005.60 °C1014.60 hPa97.00 %5.20 °C 
05:15:005.60 °C1014.60 hPa97.00 %5.20 °C 
05:00:005.60 °C1014.40 hPa97.00 %5.20 °C 
04:45:005.70 °C1014.30 hPa97.00 %5.30 °C 
04:30:005.80 °C1014.20 hPa97.00 %5.40 °C 
04:15:005.80 °C1014.10 hPa97.00 %5.40 °C 
04:00:005.60 °C1014.20 hPa97.00 %5.20 °C 
03:45:005.60 °C1013.90 hPa97.00 %5.20 °C 
03:30:005.60 °C1014.00 hPa97.00 %5.20 °C 
03:15:005.60 °C1014.00 hPa97.00 %5.20 °C 
03:00:005.50 °C1014.00 hPa96.00 %4.90 °C 
02:45:005.50 °C1013.80 hPa96.00 %4.90 °C 
02:30:005.50 °C1013.50 hPa96.00 %4.90 °C 
02:15:005.40 °C1013.60 hPa96.00 %4.80 °C 
02:00:005.40 °C1013.50 hPa96.00 %4.80 °C 
01:45:005.40 °C1013.60 hPa96.00 %4.80 °C 
01:30:005.30 °C1013.70 hPa96.00 %4.70 °C 
01:15:005.20 °C1013.60 hPa96.00 %4.60 °C 
01:00:005.10 °C1013.40 hPa96.00 %4.50 °C 
00:45:005.20 °C1013.40 hPa96.00 %4.60 °C 
00:30:005.20 °C1013.30 hPa96.00 %4.60 °C 
00:15:005.20 °C1013.40 hPa96.00 %4.60 °C 
00:00:005.30 °C1013.60 hPa96.00 %4.70 °C 

Permanenter Link zu dieser Seite: Wetter im Erzgebirge am 23.11.2016
Performance-Info: Die Erstellung der Seite / Statistik(en) / Tabelle(n) erforderte 5 Datenbankserver-Abfrage(n) und dauerte 96 Millisekunden. (Dieser Messwert ist von der Gesamt-Auslastung des Servers abhängig.)
Erzgebirge - Wetter | Erzgebirge - Wetter (Mobilgeräte) | Komplette Klimadatenbank